Available data for KWHP from the past 2 hours
LA / WHITEMAN, CA
Metar
KWHP 151955Z 00000KT 10SM SKC 24/M09 A3009

19:55 UTC

Wind: 0° 0kt

Visibility: 10 SM

Sky:

Temp: 24 deg C / 75.2 deg F

Dewpoint: -9 deg C / 15.8 deg F

Pressure: 30.09 inHg

Pireps (2)
ONT UA /OV ONT045010/TM 1900/FL040/TP C172/TB LGT-MOD
CNO UA /OV PDZ/TM 1844/FL020/TP C182/TB LGT OCNL MOD TB